Time;durP1;ratioP1;P1;durP2;ratioP2;P2;SDS_P1;SDS_P2;PMS_P1;PMS_P2;Temp;Humidity;BMP_temperature;BMP_pressure;BME280_temperature;BME280_humidity;BME280_pressure;Samples;Min_cycle;Max_cycle;Signal;HPM_P1;HPM_P2
2022/08/03 00:01:28;;;;;;;3.67;2.97;;;27.30;55.20;28.60;100778.00;;;;5029426;28;20182;-46
2022/08/03 00:03:53;;;;;;;3.70;3.00;;;27.20;55.10;28.50;100780.00;;;;5047413;28;20229;-44
2022/08/03 00:06:19;;;;;;;3.60;3.00;;;27.20;55.10;28.50;100777.00;;;;5028206;28;20543;-45
2022/08/03 00:08:45;;;;;;;3.30;2.90;;;27.20;55.10;28.50;100770.00;;;;5028108;28;20228;-44
2022/08/03 00:11:10;;;;;;;3.03;2.80;;;27.20;55.20;28.50;100770.00;;;;5028525;28;20179;-44
2022/08/03 00:13:36;;;;;;;3.25;2.70;;;27.20;55.30;28.50;100764.00;;;;5028120;28;20199;-44
2022/08/03 00:16:02;;;;;;;3.17;2.88;;;27.20;55.20;28.50;100767.00;;;;5043580;28;20278;-45
2022/08/03 00:18:28;;;;;;;2.92;2.72;;;27.20;55.20;28.50;100765.00;;;;5027969;28;20173;-45
2022/08/03 00:20:53;;;;;;;3.15;2.70;;;27.20;55.00;28.50;100765.00;;;;5028004;28;20171;-44
2022/08/03 00:23:19;;;;;;;3.45;3.15;;;27.20;55.00;28.40;100771.00;;;;5028116;28;20629;-45
2022/08/03 00:25:45;;;;;;;3.28;2.97;;;27.20;55.10;28.40;100765.00;;;;5043157;28;20199;-45
2022/08/03 00:28:11;;;;;;;3.20;2.90;;;27.10;55.40;28.40;100760.00;;;;5028024;28;20175;-44
2022/08/03 00:30:37;;;;;;;3.25;2.80;;;27.10;55.30;28.40;100760.00;;;;5028031;28;20257;-44
2022/08/03 00:33:03;;;;;;;3.00;2.80;;;27.10;55.20;28.40;100763.00;;;;5028235;28;20178;-44
2022/08/03 00:35:29;;;;;;;3.40;3.08;;;27.10;55.10;28.40;100766.00;;;;5027594;28;20198;-44
2022/08/03 00:37:54;;;;;;;3.08;2.78;;;27.10;55.30;28.30;100763.00;;;;5043170;28;20716;-45
2022/08/03 00:40:20;;;;;;;3.08;2.80;;;27.00;55.50;28.30;100756.00;;;;5027735;28;20229;-43
2022/08/03 00:42:54;;;;;;;3.58;3.05;;;27.00;55.50;28.30;100753.00;;;;5027814;28;20511;-44
2022/08/03 00:45:25;;;;;;;3.63;3.33;;;27.00;55.50;28.30;100764.00;;;;5042095;28;20666;-44
2022/08/03 00:47:51;;;;;;;3.13;2.83;;;27.00;55.50;28.30;100768.00;;;;5027837;28;20166;-43
2022/08/03 00:50:17;;;;;;;3.17;2.83;;;27.10;55.60;28.30;100752.00;;;;5027727;28;20179;-44
2022/08/03 00:52:43;;;;;;;3.00;2.75;;;27.00;55.40;28.30;100766.00;;;;5027157;28;20182;-44
2022/08/03 00:55:10;;;;;;;2.95;2.72;;;27.00;55.50;28.20;100756.00;;;;5042673;28;20673;-44
2022/08/03 00:57:36;;;;;;;3.05;2.85;;;27.00;55.50;28.20;100755.00;;;;5042861;28;20213;-45
2022/08/03 01:00:01;;;;;;;3.00;2.80;;;26.90;55.50;28.20;100766.00;;;;5027383;28;20198;-45
2022/08/03 01:02:28;;;;;;;3.75;2.95;;;26.90;55.50;28.20;100758.00;;;;5042631;28;20167;-45
2022/08/03 01:04:54;;;;;;;2.88;2.65;;;26.90;55.50;28.10;100751.00;;;;5027295;28;20207;-44
2022/08/03 01:07:45;;;;;;;3.30;3.00;;;26.90;55.50;28.10;100751.00;;;;5027285;28;20178;-44
2022/08/03 01:10:35;;;;;;;3.33;2.80;;;26.90;55.50;28.10;100745.00;;;;5040051;28;20261;-44
2022/08/03 01:13:45;;;;;;;3.15;2.80;;;26.90;55.50;28.10;100747.00;;;;5043469;28;20175;-45
2022/08/03 01:16:58;;;;;;;3.17;2.78;;;26.90;55.50;27.90;100757.00;;;;5042364;28;20186;-43
2022/08/03 01:19:47;;;;;;;3.13;2.85;;;26.90;55.50;28.10;100739.00;;;;5022135;28;20569;-45
2022/08/03 01:22:49;;;;;;;3.22;2.92;;;26.90;55.50;28.00;100743.00;;;;5042621;28;20190;-45
2022/08/03 01:25:36;;;;;;;3.30;3.00;;;26.90;55.50;28.00;100743.00;;;;5042209;28;20860;-44
2022/08/03 01:28:18;;;;;;;3.30;3.00;;;26.90;55.50;28.00;100748.00;;;;5027312;28;20171;-44
2022/08/03 01:30:44;;;;;;;3.50;2.70;;;26.90;55.50;27.90;100742.00;;;;5027202;28;20155;-45
2022/08/03 01:33:14;;;;;;;3.20;2.90;;;26.90;55.50;28.00;100734.00;;;;5042368;28;20167;-45
2022/08/03 01:35:47;;;;;;;5.35;3.10;;;26.90;55.50;27.90;100743.00;;;;5042307;28;20673;-44
2022/08/03 01:38:19;;;;;;;3.28;2.90;;;26.90;55.50;27.90;100745.00;;;;5025206;28;20232;-44
2022/08/03 01:40:45;;;;;;;3.10;2.80;;;26.90;55.50;27.90;100751.00;;;;5041900;28;20167;-46
2022/08/03 01:43:15;;;;;;;3.90;2.85;;;26.80;55.40;27.90;100749.00;;;;5027087;28;20171;-44
2022/08/03 01:45:40;;;;;;;3.28;2.97;;;26.80;55.50;27.90;100748.00;;;;5024983;28;20215;-45
2022/08/03 01:48:06;;;;;;;3.20;2.90;;;26.80;55.40;27.90;100738.00;;;;5025566;28;20175;-44
2022/08/03 01:50:33;;;;;;;3.25;2.95;;;26.90;55.50;27.90;100738.00;;;;5042097;28;20793;-45
2022/08/03 01:52:58;;;;;;;3.38;3.08;;;26.80;55.40;27.90;100744.00;;;;5042234;28;20789;-44
2022/08/03 01:55:27;;;;;;;3.95;3.10;;;26.80;55.40;27.90;100742.00;;;;5026688;28;20251;-45
2022/08/03 01:57:53;;;;;;;3.20;2.90;;;26.80;55.50;27.80;100739.00;;;;5041933;28;20167;-44
2022/08/03 02:00:18;;;;;;;3.40;3.10;;;26.80;55.40;27.50;100744.00;;;;5042452;28;20186;-45
2022/08/03 02:02:45;;;;;;;3.00;2.80;;;26.70;56.00;27.80;100737.00;;;;5031650;28;20578;-44
2022/08/03 02:05:11;;;;;;;3.42;2.85;;;26.80;55.40;27.80;100731.00;;;;5046416;28;20206;-46
2022/08/03 02:07:39;;;;;;;3.30;3.00;;;26.80;55.40;27.80;100731.00;;;;5045901;28;20179;-45
2022/08/03 02:10:05;;;;;;;3.47;2.80;;;26.80;55.50;27.70;100735.00;;;;5042054;28;20163;-45
2022/08/03 02:12:31;;;;;;;3.10;2.90;;;26.80;55.40;27.80;100734.00;;;;5041729;28;20171;-45
2022/08/03 02:14:58;;;;;;;2.90;2.70;;;26.80;55.40;27.70;100719.00;;;;5035042;28;20217;-46
2022/08/03 02:17:25;;;;;;;3.00;2.80;;;26.70;55.40;27.70;100730.00;;;;5045372;28;20225;-44
2022/08/03 02:19:51;;;;;;;3.30;3.00;;;26.70;55.30;27.70;100732.00;;;;5046070;28;20179;-45
2022/08/03 02:22:16;;;;;;;7.20;3.10;;;26.60;55.30;27.70;100733.00;;;;5030430;28;20177;-45
2022/08/03 02:24:42;;;;;;;3.10;2.80;;;26.60;55.30;27.70;100730.00;;;;5030232;28;20283;-45
2022/08/03 02:27:25;;;;;;;3.22;2.90;;;26.70;55.60;27.60;100726.00;;;;5045577;28;20187;-45
2022/08/03 02:30:11;;;;;;;3.22;2.92;;;26.60;55.40;27.60;100733.00;;;;5044511;28;20586;-45
2022/08/03 02:32:39;;;;;;;3.47;2.80;;;26.60;55.50;27.60;100734.00;;;;5029120;28;20171;-44
2022/08/03 02:35:10;;;;;;;2.97;2.70;;;26.60;55.50;27.50;100729.00;;;;5030389;28;20195;-44
2022/08/03 02:37:50;;;;;;;3.20;3.00;;;26.60;55.50;27.50;100722.00;;;;5045570;28;20217;-45
2022/08/03 02:40:18;;;;;;;3.05;2.80;;;26.50;55.50;27.50;100727.00;;;;5045571;28;20699;-44
2022/08/03 02:42:43;;;;;;;3.17;2.97;;;26.50;55.60;27.50;100721.00;;;;5047791;28;20171;-44
2022/08/03 02:45:12;;;;;;;3.45;2.88;;;26.60;55.50;27.50;100720.00;;;;5045194;28;20205;-45
2022/08/03 02:47:40;;;;;;;4.72;3.05;;;26.50;55.50;27.50;100718.00;;;;5044968;28;20181;-43
2022/08/03 02:50:08;;;;;;;4.60;2.90;;;26.50;55.40;27.40;100717.00;;;;5045009;28;20163;-45
2022/08/03 02:52:34;;;;;;;2.80;2.60;;;26.60;55.50;27.40;100719.00;;;;5028526;28;20270;-45
2022/08/03 02:55:00;;;;;;;3.53;2.75;;;26.50;55.30;27.40;100722.00;;;;5045163;28;20275;-44
2022/08/03 02:57:27;;;;;;;3.40;2.80;;;26.50;55.20;27.40;100714.00;;;;5045032;28;20206;-43
2022/08/03 02:59:53;;;;;;;4.07;2.92;;;26.50;55.30;27.40;100720.00;;;;5044798;28;20178;-45
2022/08/03 03:02:18;;;;;;;3.10;2.90;;;26.50;55.60;27.40;100706.00;;;;5045028;28;20171;-44
2022/08/03 03:04:44;;;;;;;2.92;2.72;;;26.50;55.60;27.40;100721.00;;;;5044818;28;20238;-44
2022/08/03 03:07:12;;;;;;;3.45;2.95;;;26.40;55.60;27.30;100712.00;;;;5044766;28;20175;-44
2022/08/03 03:09:38;;;;;;;3.08;2.88;;;26.40;55.50;27.30;100725.00;;;;5044715;28;20258;-44
2022/08/03 03:12:04;;;;;;;3.17;2.97;;;26.50;55.30;27.30;100726.00;;;;5045036;28;20250;-44
2022/08/03 03:14:30;;;;;;;3.35;2.90;;;26.50;55.50;27.30;100715.00;;;;5027774;28;20938;-44
2022/08/03 03:16:56;;;;;;;3.88;3.17;;;26.40;55.30;27.20;100724.00;;;;5027742;28;20266;-44
2022/08/03 03:19:21;;;;;;;3.58;2.97;;;26.40;55.20;27.20;100723.00;;;;5044718;28;20250;-44
2022/08/03 03:21:47;;;;;;;3.28;2.97;;;26.40;55.50;27.20;100722.00;;;;5045213;28;20213;-45
2022/08/03 03:24:13;;;;;;;2.70;2.50;;;26.30;55.30;27.20;100726.00;;;;5029487;28;20290;-45
2022/08/03 03:26:39;;;;;;;3.08;2.88;;;26.30;55.30;27.20;100738.00;;;;5029380;28;20198;-44
2022/08/03 03:29:05;;;;;;;3.05;2.85;;;26.30;55.30;27.20;100738.00;;;;5044689;28;20167;-44
2022/08/03 03:31:31;;;;;;;3.10;2.60;;;26.30;55.50;27.20;100731.00;;;;5044338;28;20178;-45
2022/08/03 03:33:57;;;;;;;3.15;2.72;;;26.30;55.50;27.10;100726.00;;;;5044920;28;20163;-45
2022/08/03 03:36:23;;;;;;;3.65;3.20;;;26.30;55.70;27.10;100723.00;;;;5041171;28;20195;-44
2022/08/03 03:38:48;;;;;;;3.30;3.00;;;26.30;55.60;27.10;100720.00;;;;5044031;28;20179;-45
2022/08/03 03:41:14;;;;;;;3.28;3.05;;;26.30;55.60;27.10;100727.00;;;;5043674;28;20214;-45
2022/08/03 03:43:40;;;;;;;4.38;2.97;;;26.20;55.50;27.10;100730.00;;;;5044142;28;20221;-45
2022/08/03 03:46:06;;;;;;;3.45;2.85;;;26.20;55.60;27.10;100727.00;;;;5043206;28;20202;-44
2022/08/03 03:48:32;;;;;;;2.95;2.72;;;26.20;55.70;27.00;100726.00;;;;5028300;28;20249;-45
2022/08/03 03:50:58;;;;;;;2.92;2.72;;;26.20;55.50;27.00;100724.00;;;;5043594;28;20242;-44
2022/08/03 03:53:24;;;;;;;3.55;3.25;;;26.20;55.50;27.00;100722.00;;;;5043871;28;20241;-44
2022/08/03 03:55:51;;;;;;;4.05;3.58;;;26.20;55.50;27.00;100720.00;;;;5028508;28;20249;-44
2022/08/03 03:58:17;;;;;;;3.35;3.05;;;26.10;55.60;27.00;100720.00;;;;5028050;28;20669;-44
2022/08/03 04:00:44;;;;;;;4.07;3.28;;;26.10;55.60;27.00;100714.00;;;;5028943;28;20213;-44
2022/08/03 04:03:10;;;;;;;3.03;2.78;;;26.10;55.70;26.90;100723.00;;;;5033492;28;20163;-44
2022/08/03 04:11:19;;;;;;;5.53;3.22;;;26.00;55.60;26.90;100736.00;;;;5028077;28;20193;-45
2022/08/03 04:13:54;;;;;;;3.38;3.08;;;26.00;55.60;26.80;100732.00;;;;5042717;28;20182;-44
2022/08/03 04:16:23;;;;;;;3.97;2.90;;;26.00;55.70;26.80;100729.00;;;;5027742;28;20186;-45
2022/08/03 04:19:04;;;;;;;3.47;3.17;;;26.00;55.80;26.80;100724.00;;;;5029778;28;20221;-44
2022/08/03 04:21:32;;;;;;;3.17;2.88;;;26.00;55.70;26.80;100725.00;;;;5022908;28;20167;-44
2022/08/03 04:24:00;;;;;;;4.32;2.83;;;26.00;55.60;26.80;100730.00;;;;5026428;28;20730;-44
2022/08/03 04:26:28;;;;;;;3.40;3.10;;;26.00;55.70;26.80;100734.00;;;;5009058;28;20237;-44
2022/08/03 04:28:54;;;;;;;3.42;2.92;;;26.00;55.80;26.80;100741.00;;;;4990108;28;20219;-43
2022/08/03 04:31:21;;;;;;;3.55;3.20;;;26.00;55.70;26.70;100733.00;;;;5006441;28;20172;-42
2022/08/03 04:33:47;;;;;;;2.95;2.75;;;25.90;55.70;26.70;100736.00;;;;4990144;28;20237;-44
2022/08/03 04:36:17;;;;;;;4.35;3.00;;;25.90;55.80;26.70;100736.00;;;;4989201;28;20729;-44
2022/08/03 04:39:03;;;;;;;3.40;3.13;;;25.90;55.80;26.70;100733.00;;;;5006485;28;20171;-42
2022/08/03 04:41:29;;;;;;;3.55;3.05;;;25.90;55.80;26.70;100747.00;;;;5006487;28;20163;-44
2022/08/03 04:43:57;;;;;;;3.30;3.00;;;25.90;55.80;26.70;100743.00;;;;4973952;28;20260;-42
2022/08/03 04:46:29;;;;;;;3.38;2.83;;;25.90;55.90;26.70;100742.00;;;;4978460;28;20222;-44
2022/08/03 04:48:55;;;;;;;3.58;3.03;;;25.80;55.70;26.60;100752.00;;;;5042674;28;20163;-43
2022/08/03 04:51:21;;;;;;;3.15;2.65;;;25.80;55.80;26.60;100762.00;;;;5042713;28;20190;-44
2022/08/03 04:53:47;;;;;;;3.33;3.03;;;25.80;55.80;26.60;100761.00;;;;5042984;28;20177;-44
2022/08/03 04:56:12;;;;;;;3.60;2.90;;;25.80;55.60;26.60;100756.00;;;;5027349;28;20222;-44
2022/08/03 04:58:38;;;;;;;2.95;2.75;;;25.80;55.60;26.60;100753.00;;;;5011102;28;20171;-44
2022/08/03 05:01:07;;;;;;;3.30;2.90;;;25.80;55.70;26.60;100761.00;;;;5006826;28;20725;-43
2022/08/03 05:03:33;;;;;;;4.95;3.28;;;25.80;55.90;26.50;100753.00;;;;5007424;28;20183;-44
2022/08/03 05:05:59;;;;;;;3.15;2.85;;;25.80;55.70;26.50;100762.00;;;;5005903;28;20192;-44
2022/08/03 05:08:25;;;;;;;3.47;3.03;;;25.80;56.30;26.50;100751.00;;;;5007321;28;20176;-44
2022/08/03 05:10:50;;;;;;;3.15;2.90;;;25.80;55.70;26.50;100752.00;;;;5007023;28;20168;-44
2022/08/03 05:13:16;;;;;;;2.97;2.65;;;25.80;55.70;26.40;100757.00;;;;5007366;28;20178;-44
2022/08/03 05:15:42;;;;;;;3.28;2.97;;;25.70;55.70;26.40;100756.00;;;;5021843;28;20550;-42
2022/08/03 05:18:07;;;;;;;3.33;2.90;;;25.70;55.80;26.40;100757.00;;;;5007076;28;20175;-43
2022/08/03 05:20:33;;;;;;;3.30;3.00;;;25.70;55.80;26.40;100757.00;;;;5006189;28;20183;-42
2022/08/03 05:23:00;;;;;;;3.28;2.97;;;25.70;55.90;26.40;100757.00;;;;5006718;28;20171;-42
2022/08/03 05:25:26;;;;;;;3.35;3.05;;;25.70;56.00;26.40;100753.00;;;;5007138;28;20199;-42
2022/08/03 05:27:52;;;;;;;3.55;3.20;;;25.60;56.10;26.40;100754.00;;;;5006967;28;20180;-42
2022/08/03 05:30:18;;;;;;;3.60;3.00;;;25.70;56.20;26.40;100753.00;;;;5007053;28;20167;-42
2022/08/03 05:32:44;;;;;;;3.88;3.35;;;25.60;56.30;26.40;100758.00;;;;5011372;28;20171;-44
2022/08/03 05:35:09;;;;;;;3.30;3.00;;;25.60;56.60;26.40;100767.00;;;;5015324;28;20295;-44
2022/08/03 05:37:35;;;;;;;3.97;3.20;;;25.60;56.40;26.40;100763.00;;;;5013098;28;20211;-44
2022/08/03 05:40:01;;;;;;;3.65;3.17;;;25.60;57.10;26.30;100769.00;;;;5010875;28;20175;-44
2022/08/03 05:42:27;;;;;;;4.35;3.20;;;25.60;56.50;26.30;100766.00;;;;5010912;28;20661;-42
2022/08/03 05:44:53;;;;;;;3.85;3.20;;;25.60;56.50;26.30;100767.00;;;;5011600;28;20199;-44
2022/08/03 05:47:19;;;;;;;4.35;3.05;;;25.60;56.50;26.30;100772.00;;;;5011057;28;20184;-44
2022/08/03 05:49:44;;;;;;;3.22;3.00;;;25.50;56.40;26.20;100754.00;;;;5011219;28;20172;-44
2022/08/03 05:52:10;;;;;;;3.17;2.90;;;25.50;56.40;26.20;100751.00;;;;5011028;28;20168;-44
2022/08/03 05:54:36;;;;;;;3.28;2.97;;;25.50;56.40;26.20;100758.00;;;;5010813;28;20241;-44
2022/08/03 05:57:01;;;;;;;3.28;3.00;;;25.40;56.40;26.20;100760.00;;;;5010646;28;20172;-44
2022/08/03 05:59:27;;;;;;;3.35;3.05;;;25.40;56.60;26.20;100748.00;;;;5010682;28;20182;-43
2022/08/03 06:01:53;;;;;;;3.20;2.90;;;25.40;56.60;26.20;100760.00;;;;5010352;28;20191;-44
2022/08/03 06:04:19;;;;;;;3.83;3.20;;;25.40;56.70;26.20;100759.00;;;;5010345;28;20191;-43
2022/08/03 06:06:44;;;;;;;3.20;2.97;;;25.40;56.70;26.20;100761.00;;;;5012867;28;20176;-43
2022/08/03 06:09:10;;;;;;;3.15;2.92;;;25.30;56.70;26.20;100750.00;;;;5011184;28;20175;-44
2022/08/03 06:11:36;;;;;;;3.42;3.13;;;25.30;56.70;26.20;100754.00;;;;5010465;28;20168;-44
2022/08/03 06:14:02;;;;;;;3.30;3.00;;;25.40;56.70;26.20;100760.00;;;;5025408;28;20164;-44
2022/08/03 06:16:28;;;;;;;2.90;2.70;;;25.40;56.90;26.10;100763.00;;;;5009819;28;20589;-44
2022/08/03 06:18:54;;;;;;;3.50;3.20;;;25.30;57.00;26.10;100761.00;;;;5010277;28;20179;-44
2022/08/03 06:21:20;;;;;;;3.45;3.15;;;25.30;56.80;26.20;100774.00;;;;5009910;28;20255;-44
2022/08/03 06:23:46;;;;;;;3.20;2.95;;;25.30;57.00;26.10;100769.00;;;;5009833;28;20174;-44
2022/08/03 06:26:12;;;;;;;3.53;3.22;;;25.30;56.90;26.10;100773.00;;;;5010256;28;20290;-44
2022/08/03 06:28:38;;;;;;;5.03;3.67;;;25.30;56.90;26.10;100767.00;;;;5010357;28;20615;-42
2022/08/03 06:31:03;;;;;;;3.60;3.30;;;25.30;56.90;26.10;100765.00;;;;5009449;28;20254;-44
2022/08/03 06:33:29;;;;;;;3.50;3.20;;;25.30;57.00;26.00;100766.00;;;;5008876;28;20195;-44
2022/08/03 06:35:55;;;;;;;3.10;2.90;;;25.30;57.00;26.00;100769.00;;;;5010272;28;20192;-44
2022/08/03 06:38:21;;;;;;;3.67;3.38;;;25.30;57.00;26.10;100775.00;;;;5010170;28;20172;-43
2022/08/03 06:40:46;;;;;;;4.15;3.40;;;25.30;57.00;26.10;100756.00;;;;5009661;28;20176;-44
2022/08/03 06:43:14;;;;;;;3.28;3.08;;;25.30;57.00;26.10;100765.00;;;;5009718;28;20168;-44
2022/08/03 06:45:40;;;;;;;3.67;3.38;;;25.30;57.00;26.10;100762.00;;;;5009535;28;20200;-43
2022/08/03 06:48:08;;;;;;;3.72;3.42;;;25.20;56.90;26.10;100767.00;;;;5009706;28;20334;-44
2022/08/03 06:50:35;;;;;;;3.75;3.45;;;25.30;57.10;26.00;100773.00;;;;5009100;28;20179;-44
2022/08/03 06:53:02;;;;;;;3.88;3.47;;;25.30;57.00;26.00;100762.00;;;;5008729;28;20171;-43
2022/08/03 06:55:28;;;;;;;3.90;3.60;;;25.40;57.10;26.10;100763.00;;;;5012639;28;20200;-43
2022/08/03 06:57:54;;;;;;;4.30;3.90;;;25.40;57.10;26.10;100774.00;;;;4966201;28;20182;-44
2022/08/03 07:00:20;;;;;;;4.22;3.80;;;25.50;57.20;26.10;100773.00;;;;5017665;28;20234;-43
2022/08/03 07:02:46;;;;;;;4.43;4.03;;;25.40;56.90;26.10;100772.00;;;;5008734;28;20215;-44
2022/08/03 07:05:12;;;;;;;3.90;3.60;;;25.40;57.30;26.10;100759.00;;;;5008592;28;20199;-43
2022/08/03 07:07:38;;;;;;;4.40;4.00;;;25.40;57.20;26.10;100767.00;;;;5008744;28;20197;-44
2022/08/03 07:10:04;;;;;;;4.35;3.85;;;25.40;57.30;26.10;100767.00;;;;5007488;28;20172;-43
2022/08/03 07:12:30;;;;;;;4.35;3.80;;;25.40;57.30;26.10;100772.00;;;;5008488;28;20673;-43
2022/08/03 07:14:57;;;;;;;4.05;3.75;;;25.40;57.30;26.10;100775.00;;;;5008564;28;20187;-42
2022/08/03 07:17:23;;;;;;;4.07;3.78;;;25.40;57.30;26.10;100768.00;;;;5008999;28;20178;-42
2022/08/03 07:19:48;;;;;;;4.05;3.63;;;25.40;57.20;26.10;100778.00;;;;5011786;28;20172;-43
2022/08/03 07:22:14;;;;;;;3.80;3.50;;;25.40;57.20;26.10;100755.00;;;;5010580;28;20176;-43
2022/08/03 07:24:42;;;;;;;3.90;3.60;;;25.40;57.30;26.10;100774.00;;;;5008191;28;20261;-43
2022/08/03 07:27:08;;;;;;;4.30;3.90;;;25.40;57.30;26.10;100777.00;;;;5008274;28;20183;-42
2022/08/03 07:29:34;;;;;;;3.80;3.50;;;25.40;57.40;26.10;100775.00;;;;5008585;28;20183;-43
2022/08/03 07:32:01;;;;;;;3.80;3.50;;;25.40;57.30;26.10;100783.00;;;;5008568;28;20198;-43
2022/08/03 07:34:26;;;;;;;3.60;3.30;;;25.40;57.90;26.10;100785.00;;;;5008760;28;20208;-45
2022/08/03 07:36:52;;;;;;;3.90;3.60;;;25.40;57.70;26.10;100721.00;;;;5008140;28;20184;-42
2022/08/03 07:39:18;;;;;;;3.90;3.60;;;25.40;57.50;26.10;100777.00;;;;5008515;28;20167;-43
2022/08/03 07:41:44;;;;;;;3.90;3.60;;;25.40;57.60;26.10;100778.00;;;;5008548;28;20205;-42
2022/08/03 07:44:10;;;;;;;4.00;3.60;;;25.30;57.50;26.00;100770.00;;;;5006721;28;20176;-44
2022/08/03 07:46:36;;;;;;;4.05;3.65;;;25.40;57.90;26.00;100776.00;;;;5008199;28;20175;-42
2022/08/03 07:49:02;;;;;;;4.15;3.60;;;25.30;58.40;26.10;100786.00;;;;5010276;28;20172;-42
2022/08/03 07:51:27;;;;;;;3.72;3.42;;;25.40;57.80;26.00;100779.00;;;;5027660;28;20619;-43
2022/08/03 07:53:56;;;;;;;3.63;3.33;;;25.30;57.90;26.00;100778.00;;;;5027946;28;20178;-41
2022/08/03 07:56:23;;;;;;;3.72;3.40;;;25.40;58.20;26.10;100783.00;;;;4977101;28;20194;-42
2022/08/03 07:58:50;;;;;;;4.78;3.30;;;25.30;58.10;26.10;100781.00;;;;5007933;28;20171;-42
2022/08/03 08:01:18;;;;;;;5.05;3.30;;;25.40;58.10;26.10;100772.00;;;;5008106;28;20529;-42
2022/08/03 08:03:47;;;;;;;3.30;3.00;;;25.40;58.00;26.10;100781.00;;;;5008186;28;20242;-43
2022/08/03 08:06:13;;;;;;;3.88;3.42;;;25.40;58.30;26.10;100778.00;;;;5007898;28;20203;-42
2022/08/03 08:08:39;;;;;;;3.95;3.40;;;25.40;58.90;26.10;100786.00;;;;5007597;28;20327;-44
2022/08/03 08:11:05;;;;;;;3.75;3.05;;;25.50;58.90;26.10;100777.00;;;;5007864;28;20176;-44
2022/08/03 08:13:30;;;;;;;6.53;3.42;;;25.50;58.90;26.10;100769.00;;;;5008094;28;20264;-42
2022/08/03 08:15:56;;;;;;;3.97;3.58;;;25.50;58.70;26.20;100778.00;;;;5007228;28;20864;-42
2022/08/03 08:18:22;;;;;;;4.50;3.33;;;25.50;58.90;26.20;100783.00;;;;5008210;28;20482;-43
2022/08/03 08:20:48;;;;;;;4.30;3.20;;;25.50;59.10;26.20;100777.00;;;;5033127;28;20724;-42
2022/08/03 08:23:21;;;;;;;5.70;3.40;;;25.50;58.90;26.20;100776.00;;;;5028343;28;20209;-42
2022/08/03 08:25:47;;;;;;;4.85;3.50;;;25.50;59.20;26.20;100777.00;;;;5027435;28;20743;-44
2022/08/03 08:28:13;;;;;;;3.65;3.20;;;25.60;59.00;26.20;100782.00;;;;5027167;28;20198;-43
2022/08/03 08:30:38;;;;;;;3.65;3.25;;;25.50;58.90;26.20;100785.00;;;;5027415;28;20171;-44
2022/08/03 08:33:04;;;;;;;4.32;3.65;;;25.50;58.80;26.20;100779.00;;;;5026858;28;20175;-44
2022/08/03 08:35:30;;;;;;;3.80;3.40;;;25.50;59.80;26.20;100769.00;;;;5024156;28;20202;-43
2022/08/03 08:37:58;;;;;;;4.28;3.13;;;25.60;59.60;26.30;100780.00;;;;5026150;28;20163;-44
2022/08/03 08:40:24;;;;;;;4.65;3.20;;;25.60;59.50;26.30;100772.00;;;;5041119;28;20790;-43
2022/08/03 08:42:49;;;;;;;3.58;3.28;;;25.70;59.60;26.30;100764.00;;;;5025646;28;20182;-44
2022/08/03 08:45:16;;;;;;;4.97;3.58;;;25.70;59.10;26.30;100769.00;;;;5026007;28;20214;-43
2022/08/03 08:47:45;;;;;;;4.00;2.85;;;25.70;59.10;26.40;100766.00;;;;5026311;28;20174;-44
2022/08/03 08:50:11;;;;;;;3.88;3.50;;;25.70;59.60;26.40;100776.00;;;;5012506;28;20183;-43
2022/08/03 08:52:40;;;;;;;4.13;3.38;;;25.80;59.10;26.40;100762.00;;;;5005891;28;20696;-44
2022/08/03 08:55:08;;;;;;;5.00;3.38;;;25.80;59.40;26.40;100765.00;;;;5005509;28;20191;-43
2022/08/03 08:57:44;;;;;;;4.25;3.47;;;25.90;58.70;26.40;100776.00;;;;4958884;28;20172;-43
2022/08/03 09:00:13;;;;;;;4.78;3.40;;;25.90;58.30;26.40;100774.00;;;;5020732;28;20646;-43
2022/08/03 09:02:43;;;;;;;5.25;3.55;;;25.90;58.00;26.40;100770.00;;;;5006722;28;20175;-49
2022/08/03 09:05:17;;;;;;;4.82;3.60;;;25.90;58.10;26.50;100768.00;;;;5020805;28;20277;-43
2022/08/03 09:07:43;;;;;;;5.15;3.55;;;25.90;58.00;26.30;100773.00;;;;5035802;28;20178;-45
2022/08/03 09:10:10;;;;;;;6.13;3.70;;;26.00;57.50;26.50;100775.00;;;;5037007;28;20186;-43
2022/08/03 09:12:40;;;;;;;5.68;3.75;;;25.90;57.30;26.50;100765.00;;;;5031918;28;20171;-43
2022/08/03 09:15:24;;;;;;;4.38;3.60;;;26.00;57.40;26.60;100768.00;;;;5024761;28;20217;-44
2022/08/03 09:17:54;;;;;;;4.82;3.58;;;26.00;57.10;26.60;100772.00;;;;5006050;28;20183;-43
2022/08/03 09:20:21;;;;;;;3.92;3.15;;;26.10;56.90;26.60;100764.00;;;;5007474;28;20717;-43
2022/08/03 09:23:09;;;;;;;4.97;3.78;;;26.10;57.50;26.70;100771.00;;;;5007379;28;20160;-44
2022/08/03 09:25:37;;;;;;;5.05;3.22;;;26.10;57.20;26.70;100769.00;;;;5013257;28;20211;-43
2022/08/03 09:28:14;;;;;;;7.28;3.53;;;26.10;57.50;26.70;100762.00;;;;5006982;28;20214;-43
2022/08/03 09:30:45;;;;;;;4.63;3.10;;;26.10;56.00;26.70;100769.00;;;;5007643;28;20246;-44
2022/08/03 09:33:13;;;;;;;4.97;3.47;;;26.20;56.00;26.70;100758.00;;;;5005535;28;20327;-42
2022/08/03 09:35:44;;;;;;;4.97;3.10;;;26.20;55.80;26.80;100757.00;;;;5007392;28;20229;-43
2022/08/03 09:38:23;;;;;;;5.05;3.13;;;26.30;56.10;26.80;100769.00;;;;5006913;28;20179;-43
2022/08/03 09:40:49;;;;;;;3.83;3.15;;;26.30;55.10;26.80;100761.00;;;;5005906;28;20234;-44
2022/08/03 09:43:15;;;;;;;5.25;2.97;;;26.40;55.10;26.90;100751.00;;;;5007253;28;20179;-44
2022/08/03 09:45:41;;;;;;;6.55;3.15;;;26.40;55.00;26.90;100760.00;;;;5006041;28;20613;-44
2022/08/03 09:48:36;;;;;;;5.50;3.28;;;26.50;55.00;27.00;100755.00;;;;5005629;28;20245;-44
2022/08/03 09:51:03;;;;;;;6.35;3.00;;;26.50;54.60;27.00;100762.00;;;;5005561;28;20218;-44
2022/08/03 09:53:28;;;;;;;5.63;3.10;;;26.50;54.80;27.00;100752.00;;;;5004928;28;20164;-42
2022/08/03 09:55:59;;;;;;;7.35;3.20;;;26.50;55.20;27.00;100754.00;;;;5004688;28;20194;-42
2022/08/03 09:58:28;;;;;;;4.50;3.40;;;26.50;55.20;27.10;100762.00;;;;4960874;28;20257;-44
2022/08/03 10:01:02;;;;;;;8.40;3.17;;;26.50;54.70;27.10;100755.00;;;;5025366;28;20656;-44
2022/08/03 10:03:30;;;;;;;4.97;3.15;;;26.60;54.50;27.10;100748.00;;;;5012528;28;20178;-43
2022/08/03 10:05:56;;;;;;;4.75;3.60;;;26.60;55.70;27.20;100759.00;;;;5005819;28;20247;-44
2022/08/03 10:08:22;;;;;;;5.72;3.30;;;26.70;55.30;27.00;100764.00;;;;5005958;28;20198;-44
2022/08/03 10:10:50;;;;;;;5.90;3.35;;;26.60;55.30;27.20;100761.00;;;;5018301;28;20175;-43
2022/08/03 10:13:17;;;;;;;6.75;3.25;;;26.80;54.80;27.20;100755.00;;;;5024819;28;20183;-43
2022/08/03 10:15:43;;;;;;;4.07;3.15;;;26.80;54.40;27.30;100754.00;;;;5021162;28;20191;-42
2022/08/03 10:18:09;;;;;;;6.93;2.90;;;26.90;54.50;27.30;100760.00;;;;5006337;28;20182;-41
2022/08/03 10:20:51;;;;;;;4.40;3.08;;;26.80;55.40;27.40;100754.00;;;;5006991;28;20254;-42
2022/08/03 10:23:17;;;;;;;3.78;2.83;;;26.80;55.90;27.30;100753.00;;;;5006304;28;20168;-41
2022/08/03 10:25:46;;;;;;;3.33;3.00;;;26.80;56.60;27.40;100750.00;;;;5025023;28;20211;-41
2022/08/03 10:28:15;;;;;;;5.63;3.08;;;26.80;57.20;27.40;100753.00;;;;5010157;28;20902;-42
2022/08/03 10:30:43;;;;;;;3.53;2.72;;;26.80;57.60;27.40;100725.00;;;;5009800;28;20172;-42
2022/08/03 10:33:26;;;;;;;4.38;2.90;;;26.70;57.90;27.40;100739.00;;;;5023717;28;20167;-41
2022/08/03 10:35:55;;;;;;;3.95;2.80;;;26.70;58.20;27.40;100732.00;;;;5023372;28;20660;-42
2022/08/03 10:38:36;;;;;;;3.42;2.65;;;26.70;58.40;27.40;100714.00;;;;5009146;28;20175;-41
2022/08/03 10:41:02;;;;;;;3.03;2.67;;;26.80;58.70;27.40;100731.00;;;;5023242;28;20179;-42
2022/08/03 10:43:58;;;;;;;4.05;2.78;;;26.80;58.90;27.50;100711.00;;;;5030575;28;20188;-41
2022/08/03 10:46:23;;;;;;;3.17;2.63;;;26.80;59.20;27.50;100706.00;;;;5025592;28;20635;-41
2022/08/03 10:48:51;;;;;;;3.20;2.60;;;26.80;59.30;27.50;100718.00;;;;5009291;28;20263;-42
2022/08/03 10:51:16;;;;;;;6.43;2.90;;;26.80;59.40;27.50;100709.00;;;;5010887;28;20242;-42
2022/08/03 10:53:42;;;;;;;3.83;2.90;;;26.80;59.80;27.50;100712.00;;;;5025530;28;20176;-41
2022/08/03 10:59:45;;;;;;;3.10;2.80;;;26.80;59.80;27.60;100711.00;;;;5009950;28;20237;-41
2022/08/03 11:02:12;;;;;;;2.80;2.60;;;26.90;59.90;27.50;100706.00;;;;5010254;28;20569;-42